Fabian Garcia SC

2021-09-20 23:45:00

  • imperial
Date Time Air Temperature Relative Humidity Dewpoint Windchill Heat Index Wind Speed Wind Dir. Rain Solar Radiation Soil Temperature
2m 2m 3m 3m 10cm
US/Mountain F % F F F MPH deg in MJ/m^2 F
max avg avg
2021-09-19 23:55:00 78.0 39.3 51.3 78.0 78.0 0.0 2.6 0.9 234.9 157.8 0.00 0.0000000 77.6
2021-09-20 00:00:00 78.0 38.9 51.0 78.0 78.0 0.0 0.0 0.0 288.9 0.0 0.00 0.0000000 77.6
2021-09-20 00:05:00 77.7 39.6 51.2 77.7 77.7 1.3 2.1 0.4 125.5 214.0 0.00 0.0000000 77.6
2021-09-20 00:10:00 77.4 41.2 52.0 77.4 77.4 0.0 2.2 1.1 138.3 201.9 0.00 0.0000000 77.5
2021-09-20 00:15:00 77.1 41.3 51.7 77.1 77.1 0.0 0.0 0.0 158.7 0.0 0.00 0.0000000 77.5
2021-09-20 00:20:00 76.9 43.3 52.9 76.9 76.9 1.2 1.9 0.3 216.0 235.8 0.00 0.0000000 77.5
2021-09-20 00:25:00 76.5 43.4 52.6 76.5 76.5 0.0 1.3 0.2 155.9 129.0 0.00 0.0000000 77.4
2021-09-20 00:30:00 76.1 44.0 52.6 76.1 76.1 0.0 0.0 0.0 182.0 0.0 0.00 0.0000000 77.4
2021-09-20 00:35:00 75.5 44.8 52.6 75.5 75.5 0.0 0.0 0.0 215.5 0.0 0.00 0.0000000 77.3
2021-09-20 00:40:00 75.2 46.1 53.1 75.2 75.2 0.0 0.0 0.0 254.0 0.0 0.00 0.0000000 77.3
2021-09-20 00:45:00 75.0 44.9 52.2 75.0 75.0 0.0 0.0 0.0 342.7 0.0 0.00 0.0000000 77.3
2021-09-20 00:50:00 75.0 45.3 52.4 75.0 75.0 0.0 0.0 0.0 219.9 0.0 0.00 0.0000000 77.2
2021-09-20 00:55:00 75.5 44.1 52.1 75.5 75.5 0.0 2.1 0.5 215.7 220.1 0.00 0.0000000 77.2
2021-09-20 01:00:00 76.4 43.4 52.5 76.4 76.4 0.0 0.0 0.0 185.1 0.0 0.00 0.0000000 77.1
2021-09-20 01:05:00 75.2 46.6 53.3 75.2 75.2 2.2 2.4 1.2 192.4 190.2 0.00 0.0000000 77.1
2021-09-20 01:10:00 74.8 47.1 53.2 74.8 74.8 1.7 2.4 1.6 187.5 187.9 0.00 0.0000000 77.1
2021-09-20 01:15:00 74.5 46.4 52.6 74.5 74.5 0.0 2.4 0.6 277.1 204.3 0.00 0.0000000 77.0
2021-09-20 01:20:00 74.5 46.3 52.5 74.5 74.5 0.0 1.0 0.1 223.5 221.7 0.00 0.0000020 76.9
2021-09-20 01:25:00 74.8 44.8 52.0 74.8 74.8 0.0 1.7 0.2 285.3 291.9 0.00 0.0000000 76.9
2021-09-20 01:30:00 75.0 44.3 51.8 75.0 75.0 0.8 1.7 0.5 22.6 3.4 0.00 0.0000000 76.9
2021-09-20 01:35:00 75.3 43.3 51.5 75.3 75.3 0.0 1.7 0.3 25.1 341.6 0.00 0.0000121 76.8
2021-09-20 01:40:00 75.3 43.4 51.5 75.3 75.3 0.0 2.4 0.6 270.5 288.4 0.00 0.0000121 76.8
2021-09-20 01:45:00 75.3 44.1 52.0 75.3 75.3 1.9 3.0 1.5 244.8 254.5 0.00 0.0000020 76.7
2021-09-20 01:50:00 75.3 43.9 51.8 75.3 75.3 2.2 4.6 3.2 238.9 249.0 0.00 0.0000020 76.7
2021-09-20 01:55:00 74.9 44.6 51.9 74.9 74.9 1.5 2.1 0.9 239.3 240.5 0.00 0.0000000 76.6
2021-09-20 02:00:00 74.7 44.8 51.8 74.7 74.7 0.0 1.0 0.1 314.0 252.5 0.00 0.0000000 76.6
2021-09-20 02:05:00 74.9 45.2 52.3 74.9 74.9 0.0 1.9 0.8 12.1 356.0 0.00 0.0000020 76.5
2021-09-20 02:10:00 74.5 45.0 51.8 74.5 74.5 0.0 3.1 0.5 14.1 349.9 0.00 0.0000000 76.5
2021-09-20 02:15:00 74.4 45.9 52.2 74.4 74.4 0.0 2.2 0.8 258.1 313.2 0.00 0.0000000 76.4
2021-09-20 02:20:00 73.9 47.3 52.6 73.9 73.9 2.4 3.0 2.0 250.7 240.1 0.00 0.0000000 76.4
2021-09-20 02:25:00 73.3 48.0 52.4 73.3 73.3 0.0 2.2 0.7 211.7 244.0 0.00 0.0000081 76.3
2021-09-20 02:30:00 72.8 48.5 52.3 72.8 72.8 0.0 0.0 0.0 163.2 0.0 0.00 0.0000040 76.3
2021-09-20 02:35:00 72.7 48.9 52.4 72.7 72.7 0.0 0.0 0.0 120.4 0.0 0.00 0.0000202 76.2
2021-09-20 02:40:00 72.4 50.0 52.7 72.4 72.4 0.0 0.0 0.0 94.5 0.0 0.00 0.0000162 76.2
2021-09-20 02:45:00 71.8 51.2 52.8 71.8 71.8 0.0 0.0 0.0 163.7 0.0 0.00 0.0000283 76.1
2021-09-20 02:50:00 71.3 51.2 52.4 71.3 71.3 0.0 0.0 0.0 163.7 0.0 0.00 0.0000222 76.1
2021-09-20 02:55:00 71.2 51.2 52.3 71.2 71.2 0.0 0.0 0.0 180.8 0.0 0.00 0.0000263 76.0
2021-09-20 03:00:00 70.9 53.7 53.3 70.9 70.9 1.5 1.9 0.8 189.1 193.5 0.00 0.0000202 76.0
2021-09-20 03:05:00 69.9 54.6 52.8 69.9 69.9 0.0 1.7 0.6 212.1 189.7 0.00 0.0000162 76.0
2021-09-20 03:10:00 69.9 55.5 53.3 69.9 69.9 0.8 0.8 0.0 202.0 202.0 0.00 0.0000202 75.9
2021-09-20 03:15:00 69.3 57.1 53.4 69.3 69.3 0.8 1.5 0.3 205.0 213.0 0.00 0.0000121 75.9
2021-09-20 03:20:00 69.1 57.0 53.2 69.1 69.1 2.4 2.6 1.5 205.7 199.4 0.00 0.0000101 75.8
2021-09-20 03:25:00 69.2 57.1 53.4 69.2 69.2 1.9 2.8 2.4 190.2 195.4 0.00 0.0000000 75.7
2021-09-20 03:30:00 69.2 57.0 53.3 69.2 69.2 1.9 2.2 1.0 190.9 193.5 0.00 0.0000000 75.7
2021-09-20 03:35:00 69.1 57.5 53.5 69.1 69.1 1.3 2.4 1.7 207.2 203.9 0.00 0.0000000 75.7
2021-09-20 03:40:00 68.7 57.7 53.2 68.7 68.7 4.0 4.0 2.8 210.5 210.3 0.00 0.0000000 75.6
2021-09-20 03:45:00 68.9 58.2 53.6 68.9 68.9 2.1 4.2 3.0 207.5 212.3 0.00 0.0000000 75.6
2021-09-20 03:50:00 69.1 56.6 53.0 69.1 69.1 2.6 3.0 1.2 180.6 192.8 0.00 0.0000000 75.5
2021-09-20 03:55:00 69.7 55.6 53.1 69.7 69.7 3.0 3.3 1.5 91.6 177.1 0.00 0.0000000 75.5
2021-09-20 04:00:00 70.0 54.7 53.0 70.0 70.0 3.7 4.0 3.2 111.2 103.9 0.00 0.0000000 75.5
2021-09-20 04:05:00 70.1 55.6 53.5 70.1 70.1 2.4 3.8 2.4 204.4 159.4 0.00 0.0000000 75.4
2021-09-20 04:10:00 69.7 55.4 53.0 69.7 69.7 1.9 2.4 0.6 79.9 93.3 0.00 0.0000000 75.4
2021-09-20 04:15:00 69.6 55.5 53.0 69.6 69.6 0.0 1.9 0.7 153.9 102.2 0.00 0.0000000 75.3
2021-09-20 04:20:00 69.4 56.7 53.4 69.4 69.4 0.8 0.8 0.0 187.0 187.0 0.00 0.0000000 75.3
2021-09-20 04:25:00 69.3 56.8 53.3 69.3 69.3 0.0 1.5 0.1 71.2 181.7 0.00 0.0000000 75.2
2021-09-20 04:30:00 69.0 56.8 53.0 69.0 69.0 0.0 0.0 0.0 43.4 0.0 0.00 0.0000000 75.2
2021-09-20 04:35:00 69.9 55.0 53.0 69.9 69.9 0.0 3.1 2.2 171.1 67.8 0.00 0.0000000 75.1
2021-09-20 04:40:00 68.8 57.7 53.2 68.8 68.8 0.0 3.3 0.9 241.7 237.6 0.00 0.0000000 75.1
2021-09-20 04:45:00 69.3 58.0 53.8 69.3 69.3 3.0 3.0 0.7 186.8 73.2 0.00 0.0000000 75.1
2021-09-20 04:50:00 68.5 58.2 53.3 68.5 68.5 0.0 3.1 1.2 155.5 191.8 0.00 0.0000000 75.0
2021-09-20 04:55:00 68.5 58.9 53.5 68.5 68.5 0.0 0.8 0.0 157.5 158.9 0.00 0.0000000 75.0
2021-09-20 05:00:00 67.5 60.6 53.4 67.5 67.5 1.9 1.9 0.3 243.7 238.5 0.00 0.0000000 74.9
2021-09-20 05:05:00 67.2 60.5 53.1 67.2 67.2 0.0 1.3 0.1 99.4 234.0 0.00 0.0000000 74.9
2021-09-20 05:10:00 67.4 61.0 53.5 67.4 67.4 0.0 1.2 0.3 203.6 157.6 0.00 0.0000000 74.8
2021-09-20 05:15:00 66.8 62.5 53.6 66.8 66.8 0.0 0.0 0.0 192.3 0.0 0.00 0.0000000 74.8
2021-09-20 05:20:00 66.6 62.4 53.3 66.6 66.6 0.0 0.0 0.0 141.8 0.0 0.00 0.0000000 74.8
2021-09-20 05:25:00 66.6 62.4 53.3 66.6 66.6 0.0 0.0 0.0 155.8 0.0 0.00 0.0000000 74.7
2021-09-20 05:30:00 66.5 62.7 53.4 66.5 66.5 0.0 0.0 0.0 156.0 0.0 0.00 0.0000000 74.7
2021-09-20 05:35:00 66.8 61.2 53.0 66.8 66.8 0.0 2.4 0.8 147.8 165.8 0.00 0.0000000 74.6
2021-09-20 05:40:00 66.9 62.1 53.5 66.9 66.9 1.2 1.2 0.1 147.5 148.1 0.00 0.0000000 74.6
2021-09-20 05:45:00 67.2 61.9 53.6 67.2 67.2 0.0 1.9 0.8 132.9 134.2 0.00 0.0000000 74.6
2021-09-20 05:50:00 67.3 62.0 53.9 67.3 67.3 1.0 1.3 0.2 156.6 149.2 0.00 0.0000000 74.5
2021-09-20 05:55:00 66.7 62.9 53.7 66.7 66.7 1.7 1.7 0.2 138.5 141.2 0.00 0.0000000 74.4
2021-09-20 06:00:00 66.6 63.6 53.9 66.6 66.6 0.0 2.1 0.3 153.1 139.9 0.00 0.0000000 74.4
2021-09-20 06:05:00 66.1 64.6 53.8 66.1 66.1 0.0 0.0 0.0 151.5 0.0 0.00 0.0000000 74.4
2021-09-20 06:10:00 66.0 65.0 53.9 66.0 66.0 0.0 0.0 0.0 187.2 0.0 0.00 0.0000000 74.3
2021-09-20 06:15:00 65.8 66.0 54.1 65.8 65.8 0.0 0.0 0.0 165.5 0.0 0.00 0.0000000 74.3
2021-09-20 06:20:00 65.6 66.4 54.1 65.6 65.6 0.0 0.8 0.0 129.7 117.5 0.00 0.0000000 74.2
2021-09-20 06:25:00 65.8 66.0 54.1 65.8 65.8 0.0 0.0 0.0 171.3 0.0 0.00 0.0000000 74.2
2021-09-20 06:30:00 65.4 66.2 53.9 65.4 65.4 0.0 0.0 0.0 125.6 0.0 0.00 0.0000000 74.2
2021-09-20 06:35:00 65.6 65.4 53.7 65.6 65.6 0.0 0.0 0.0 108.1 0.0 0.00 0.0000020 74.1
2021-09-20 06:40:00 65.8 65.7 54.0 65.8 65.8 0.0 0.0 0.0 160.5 0.0 0.00 0.0001071 74.1
2021-09-20 06:45:00 65.8 66.8 54.5 65.8 65.8 0.0 0.0 0.0 181.0 0.0 0.00 0.0002869 74.0
2021-09-20 06:50:00 65.4 66.7 54.1 65.4 65.4 0.0 1.3 0.1 182.4 149.2 0.00 0.0005819 74.0
2021-09-20 06:55:00 65.3 67.3 54.2 65.3 65.3 0.0 0.0 0.0 183.9 0.0 0.00 0.0010427 73.9
2021-09-20 07:00:00 65.1 67.2 54.0 65.1 65.1 0.0 0.8 0.0 145.7 169.4 0.00 0.0017338 73.9
2021-09-20 07:05:00 65.2 67.6 54.2 65.2 65.2 0.0 0.0 0.0 144.0 0.0 0.00 0.0025704 73.8
2021-09-20 07:10:00 65.3 67.2 54.1 65.3 65.3 1.3 1.7 0.4 160.8 139.9 0.00 0.0037466 73.8
2021-09-20 07:15:00 65.8 66.1 54.2 65.8 65.8 0.0 2.4 0.9 186.3 151.2 0.00 0.0069961 73.8
2021-09-20 07:20:00 66.4 65.5 54.4 66.4 66.4 0.0 2.8 0.8 153.6 152.8 0.00 0.0127880 73.7
2021-09-20 07:25:00 66.7 64.5 54.3 66.7 66.7 0.0 0.0 0.0 126.5 0.0 0.00 0.0183457 73.7
2021-09-20 07:30:00 67.7 63.0 54.6 67.7 67.7 0.0 2.1 0.3 178.3 158.6 0.00 0.0246753 73.7
2021-09-20 07:35:00 67.6 62.3 54.3 67.6 67.6 1.2 3.1 1.7 175.3 165.6 0.00 0.0235339 73.6
2021-09-20 07:40:00 68.0 61.5 54.3 68.0 68.0 2.2 3.1 1.7 176.2 167.7 0.00 0.0354082 73.6
2021-09-20 07:45:00 68.6 60.1 54.2 68.6 68.6 2.8 4.7 2.2 148.3 160.3 0.00 0.0396610 73.5
2021-09-20 07:50:00 68.9 59.8 54.4 68.9 68.9 2.8 3.7 2.7 146.7 156.4 0.00 0.0386826 73.5
2021-09-20 07:55:00 69.8 58.7 54.7 69.8 69.8 0.8 2.8 1.2 155.5 149.0 0.00 0.0451197 73.5
2021-09-20 08:00:00 70.4 57.2 54.5 70.4 70.4 2.6 2.8 1.9 123.2 141.1 0.00 0.0516508 73.5
2021-09-20 08:05:00 70.7 57.3 54.9 70.7 70.7 1.9 4.2 2.9 168.8 156.9 0.00 0.0567100 73.4
2021-09-20 08:10:00 70.8 56.2 54.4 70.8 70.8 3.8 5.3 3.5 136.5 134.5 0.00 0.0616822 73.4
2021-09-20 08:15:00 71.2 56.1 54.8 71.2 71.2 4.2 4.6 3.7 139.4 147.8 0.00 0.0667129 73.4
2021-09-20 08:20:00 71.4 55.8 54.8 71.4 71.4 6.0 6.0 3.7 166.0 153.8 0.00 0.0716047 73.3
2021-09-20 08:25:00 72.0 55.5 55.2 72.0 72.0 3.5 5.3 3.5 161.8 159.9 0.00 0.0769190 73.3
2021-09-20 08:30:00 72.2 55.3 55.3 72.2 72.2 3.1 5.1 3.4 155.3 135.0 0.00 0.0814225 73.3
2021-09-20 08:35:00 72.8 54.7 55.6 72.8 72.8 0.8 3.1 2.3 151.1 171.1 0.00 0.0872840 73.3
2021-09-20 08:40:00 74.0 52.3 55.4 74.0 74.0 1.9 2.6 1.3 39.8 70.1 0.00 0.0922438 73.3
2021-09-20 08:45:00 74.4 51.2 55.2 74.4 74.4 1.0 1.5 0.4 205.9 191.4 0.00 0.0973821 73.3
2021-09-20 08:50:00 73.8 53.5 55.9 73.8 73.8 2.4 5.6 3.8 132.0 212.5 0.00 0.1025428 73.3
2021-09-20 08:55:00 75.1 50.4 55.5 75.1 75.1 2.8 3.8 2.6 119.9 153.1 0.00 0.1078500 73.3
2021-09-20 09:00:00 76.0 49.6 55.8 76.0 76.0 0.0 4.2 1.9 51.4 122.5 0.00 0.1128307 73.3
2021-09-20 09:05:00 76.6 48.5 55.8 76.6 76.6 3.0 4.2 2.4 198.6 144.0 0.00 0.1179490 73.3
2021-09-20 09:10:00 76.6 48.7 55.8 76.6 76.6 2.1 4.0 1.8 276.0 211.3 0.00 0.1230530 73.3
2021-09-20 09:15:00 76.7 48.3 55.8 76.7 76.7 1.9 3.3 2.2 207.5 241.2 0.00 0.1279794 73.3
2021-09-20 09:20:00 77.5 46.3 55.3 77.5 77.5 0.8 4.0 1.9 42.2 259.6 0.00 0.1330414 73.4
2021-09-20 09:25:00 78.4 43.4 54.3 78.4 78.4 3.3 4.4 2.3 236.7 249.4 0.00 0.1383269 73.4
2021-09-20 09:30:00 78.3 44.2 54.8 78.3 78.3 2.8 3.1 2.5 32.9 285.4 0.00 0.1430989 73.4
2021-09-20 09:35:00 80.1 42.3 55.1 80.1 80.2 3.5 4.4 2.6 43.3 15.8 0.00 0.1475455 73.5
2021-09-20 09:40:00 80.5 39.2 53.4 80.5 80.5 5.3 6.0 2.2 9.0 64.8 0.00 0.1525682 73.5
2021-09-20 09:45:00 80.2 39.5 53.3 80.2 80.2 7.2 7.2 4.4 62.1 32.2 0.00 0.1563926 73.6
2021-09-20 09:50:00 80.2 39.7 53.5 80.2 80.2 4.4 7.2 5.4 39.0 33.3 0.00 0.1613751 73.6
2021-09-20 09:55:00 80.3 40.6 54.2 80.3 80.2 2.4 6.7 4.1 30.2 58.3 0.00 0.1663288 73.7
2021-09-20 10:00:00 80.9 38.5 53.2 80.9 80.9 2.8 6.5 4.0 0.8 24.1 0.00 0.1706479 73.8
2021-09-20 10:05:00 81.8 37.0 53.0 81.8 81.8 4.0 6.0 4.1 21.8 21.1 0.00 0.1745094 73.8
2021-09-20 10:10:00 81.8 35.9 52.1 81.8 81.8 7.2 7.4 5.4 30.9 34.2 0.00 0.1786778 73.9
2021-09-20 10:15:00 82.2 35.8 52.5 82.2 82.2 8.5 9.4 5.9 45.2 40.9 0.00 0.1826536 74.0
2021-09-20 10:20:00 82.4 35.8 52.6 82.4 82.4 3.8 8.0 5.4 55.9 31.5 0.00 0.1868366 74.0
2021-09-20 10:25:00 83.0 34.3 52.0 83.0 83.0 4.4 8.7 5.2 69.5 40.2 0.00 0.1909074 74.1
2021-09-20 10:30:00 83.3 32.2 50.5 83.3 83.3 5.5 7.6 5.1 94.4 62.0 0.00 0.1939275 74.2
2021-09-20 10:35:00 83.3 32.4 50.7 83.3 83.3 6.0 8.7 5.5 31.8 55.2 0.00 0.1975102 74.3
2021-09-20 10:40:00 84.5 30.7 50.3 84.5 84.5 6.9 8.3 5.3 7.3 49.3 0.00 0.2013826 74.4
2021-09-20 10:45:00 85.2 29.5 49.8 85.2 85.2 3.7 9.9 5.8 11.4 12.3 0.00 0.2047266 74.5
2021-09-20 10:50:00 86.3 26.5 47.9 86.3 86.3 5.8 8.7 4.5 332.4 344.3 0.00 0.2076829 74.6
2021-09-20 10:55:00 85.3 28.9 49.4 85.3 85.3 2.2 6.5 3.9 215.4 236.2 0.00 0.2106512 74.7
2021-09-20 11:00:00 85.6 26.3 47.1 85.6 85.6 5.5 7.1 4.4 1.4 20.6 0.00 0.2134486 74.8
2021-09-20 11:05:00 86.9 24.5 46.3 86.9 86.9 9.4 10.3 5.0 330.3 323.3 0.00 0.2165570 74.9
2021-09-20 11:10:00 86.0 25.5 46.6 86.0 86.0 9.6 10.1 7.1 45.5 13.3 0.00 0.2192031 75.0
2021-09-20 11:15:00 85.6 26.1 46.9 85.6 85.6 1.2 9.0 4.7 331.8 346.0 0.00 0.2215703 75.1
2021-09-20 11:20:00 86.2 26.0 47.4 86.2 86.2 6.3 9.7 4.9 331.3 313.6 0.00 0.2238885 75.3
2021-09-20 11:25:00 86.8 25.0 46.8 86.8 86.8 3.1 5.6 3.6 281.5 313.3 0.00 0.2275086 75.4
2021-09-20 11:30:00 86.0 25.4 46.5 86.0 86.0 3.7 11.3 5.8 7.8 292.2 0.00 0.2279412 75.5
2021-09-20 11:35:00 86.5 25.9 47.5 86.5 86.5 8.8 8.8 4.4 253.6 239.6 0.00 0.2286153 75.6
2021-09-20 11:40:00 87.1 24.5 46.5 87.1 87.1 6.0 9.4 7.5 333.7 307.3 0.00 0.2305610 75.7
2021-09-20 11:45:00 86.8 24.3 46.0 86.8 86.8 7.2 13.3 8.2 338.1 340.6 0.00 0.2335673 75.8
2021-09-20 11:50:00 87.3 24.0 46.2 87.3 87.3 4.7 8.0 4.7 275.1 327.3 0.00 0.2363526 75.9
2021-09-20 11:55:00 87.6 22.5 44.7 87.6 87.6 2.4 9.4 4.3 324.1 223.7 0.00 0.2403844 76.0
2021-09-20 12:00:00 87.9 23.0 45.4 87.9 87.9 7.4 8.1 4.4 260.3 254.3 0.00 0.2420040 76.2
2021-09-20 12:05:00 88.5 20.8 43.4 88.5 88.5 6.7 10.5 7.1 287.7 270.0 0.00 0.2437754 76.3
2021-09-20 12:10:00 88.2 22.1 44.7 88.2 88.2 4.2 9.9 5.3 249.4 264.1 0.00 0.2451632 76.4
2021-09-20 12:15:00 90.4 18.3 41.5 90.4 90.4 5.3 12.4 6.1 205.0 320.9 0.00 0.2467075 76.6
2021-09-20 12:20:00 89.2 19.2 41.8 89.2 89.2 5.1 13.9 7.1 268.3 271.1 0.00 0.2478605 76.7
2021-09-20 12:25:00 89.0 19.7 42.4 89.0 89.0 6.0 9.0 6.4 257.4 258.4 0.00 0.2491213 76.9
2021-09-20 12:30:00 89.9 19.4 42.7 89.9 89.9 4.7 13.0 6.9 304.9 271.2 0.00 0.2499645 77.0
2021-09-20 12:35:00 89.5 18.1 40.6 89.5 89.5 6.2 11.2 6.5 274.5 279.6 0.00 0.2518542 77.1
2021-09-20 12:40:00 89.8 17.7 40.3 89.8 89.8 7.6 8.8 4.9 286.2 300.0 0.00 0.2522316 77.3
2021-09-20 12:45:00 89.8 18.9 41.9 89.8 89.8 11.7 11.7 7.8 289.1 270.9 0.00 0.2521971 77.4
2021-09-20 12:50:00 89.2 19.3 42.0 89.2 89.2 7.8 11.2 6.4 6.3 285.6 0.00 0.2529626 77.5
2021-09-20 12:55:00 90.6 18.8 42.4 90.6 90.6 3.0 7.1 4.3 262.6 296.3 0.00 0.2524334 77.6
2021-09-20 13:00:00 90.4 18.3 41.6 90.4 90.4 12.6 13.1 8.1 256.7 276.3 0.00 0.2527656 77.8
2021-09-20 13:05:00 91.1 17.3 40.7 91.1 91.1 11.2 12.4 7.8 256.4 272.6 0.00 0.2535665 77.8
2021-09-20 13:10:00 90.2 18.0 40.9 90.2 90.2 2.2 10.6 6.8 265.1 268.4 0.00 0.2530294 77.9
2021-09-20 13:15:00 91.1 18.0 41.7 91.1 91.1 8.0 11.7 5.8 267.5 286.3 0.00 0.2526036 78.0
2021-09-20 13:20:00 91.3 17.1 40.6 91.3 91.3 9.4 9.4 6.7 258.5 269.8 0.00 0.2531555 78.0
2021-09-20 13:25:00 90.6 17.5 40.5 90.6 90.6 9.6 13.9 10.3 253.2 252.7 0.00 0.2535724 78.0
2021-09-20 13:30:00 90.4 16.3 38.6 90.4 90.4 9.0 14.0 9.2 259.7 260.9 0.00 0.2531083 78.1
2021-09-20 13:35:00 91.0 15.4 37.7 91.0 91.0 4.7 11.2 7.8 340.4 274.9 0.00 0.2514756 78.1
2021-09-20 13:40:00 91.7 15.6 38.4 91.7 91.7 5.6 13.7 7.8 258.7 279.3 0.00 0.2510229 78.2
2021-09-20 13:45:00 91.0 15.6 37.9 91.0 91.0 6.0 13.0 9.1 266.9 263.4 0.00 0.2506935 78.2
2021-09-20 13:50:00 91.1 16.6 39.6 91.1 91.1 6.2 14.6 9.0 232.1 269.2 0.00 0.2489892 78.3
2021-09-20 13:55:00 90.8 15.0 36.7 90.8 90.8 12.2 16.9 10.2 264.5 256.5 0.00 0.2480573 78.4
2021-09-20 14:00:00 91.8 14.9 37.5 91.8 91.8 12.1 12.4 6.8 262.9 259.7 0.00 0.2475000 78.4
2021-09-20 14:05:00 91.1 15.2 37.3 91.1 91.1 6.7 15.6 10.0 280.3 259.4 0.00 0.2457816 78.5
2021-09-20 14:10:00 92.5 14.4 37.0 92.5 92.5 2.8 7.8 4.9 312.0 302.1 0.00 0.2437370 78.6
2021-09-20 14:15:00 92.9 15.2 38.9 92.9 92.9 6.5 7.1 4.0 303.1 296.3 0.00 0.2422193 78.8
2021-09-20 14:20:00 93.3 14.8 38.4 93.3 93.3 7.4 7.4 4.3 250.5 301.7 0.00 0.2397584 78.9
2021-09-20 14:25:00 91.3 15.1 37.4 91.3 91.3 10.1 16.7 10.7 261.2 274.8 0.00 0.2393737 79.0
2021-09-20 14:30:00 91.0 15.5 37.9 91.0 91.0 8.1 13.9 9.8 230.4 248.2 0.00 0.2365610 79.2
2021-09-20 14:35:00 91.4 15.0 37.3 91.4 91.4 11.5 11.5 6.6 281.5 267.1 0.00 0.2327861 79.3
2021-09-20 14:40:00 92.3 14.7 37.5 92.3 92.3 11.7 12.1 7.7 269.4 282.5 0.00 0.2299955 79.4
2021-09-20 14:45:00 91.9 16.2 39.7 91.9 91.9 7.6 11.2 6.0 237.4 265.0 0.00 0.2275542 79.6
2021-09-20 14:50:00 93.3 14.0 37.1 93.3 93.3 10.5 10.5 6.1 240.9 262.0 0.00 0.2272027 79.7
2021-09-20 14:55:00 92.6 14.1 36.6 92.6 92.6 6.0 11.9 7.8 251.7 257.3 0.00 0.2249775 79.9
2021-09-20 15:00:00 92.2 13.4 35.0 92.2 92.2 4.6 12.4 8.9 233.1 257.0 0.00 0.2220613 80.0
2021-09-20 15:05:00 92.6 13.5 35.6 92.6 92.6 7.1 11.9 7.8 274.7 256.1 0.00 0.2182766 80.2
2021-09-20 15:10:00 92.4 12.9 34.2 92.4 92.4 10.1 14.7 9.6 252.7 245.1 0.00 0.2157390 80.3
2021-09-20 15:15:00 92.4 12.9 34.3 92.4 92.4 5.8 14.7 9.2 252.7 261.7 0.00 0.2128355 80.5
2021-09-20 15:20:00 92.3 13.1 34.5 92.3 92.3 9.7 13.3 9.8 252.7 260.1 0.00 0.2103638 80.6
2021-09-20 15:25:00 91.9 13.0 34.0 91.9 91.9 11.5 14.2 11.1 259.7 249.5 0.00 0.2059308 80.7
2021-09-20 15:30:00 91.9 12.7 33.4 91.9 91.9 10.1 14.9 10.6 242.7 251.6 0.00 0.2020178 80.9
2021-09-20 15:35:00 92.2 12.9 34.1 92.2 92.2 4.4 10.3 7.4 310.5 274.1 0.00 0.1977838 81.0
2021-09-20 15:40:00 92.0 12.6 33.4 92.0 92.0 7.4 13.1 7.3 275.9 279.3 0.00 0.1936599 81.1
2021-09-20 15:45:00 92.8 12.3 33.3 92.8 92.8 6.7 12.4 8.0 340.7 283.7 0.00 0.1892426 81.2
2021-09-20 15:50:00 92.5 12.6 33.6 92.5 92.5 11.3 12.6 9.2 288.4 266.0 0.00 0.1853802 81.3
2021-09-20 15:55:00 92.0 13.1 34.4 92.0 92.0 11.9 11.9 8.8 228.3 267.7 0.00 0.1811422 81.4
2021-09-20 16:00:00 91.8 12.4 32.9 91.8 91.8 8.8 12.6 9.8 267.0 263.2 0.00 0.1773724 81.5
2021-09-20 16:05:00 91.1 13.0 33.4 91.1 91.1 5.5 12.1 8.8 209.9 245.3 0.00 0.1729448 81.6
2021-09-20 16:10:00 92.2 12.7 33.7 92.2 92.2 6.2 13.0 6.3 254.1 267.5 0.00 0.1683440 81.7
2021-09-20 16:15:00 92.3 12.7 33.9 92.3 92.3 6.7 12.6 8.0 263.8 262.0 0.00 0.1653126 81.8
2021-09-20 16:20:00 92.8 12.7 34.2 92.8 92.8 7.1 10.1 7.0 274.1 266.6 0.00 0.1597321 81.9
2021-09-20 16:25:00 92.0 12.7 33.6 92.0 92.0 7.8 11.5 8.1 271.8 263.3 0.00 0.1552742 81.9
2021-09-20 16:30:00 92.5 12.4 33.3 92.5 92.5 6.2 10.6 6.4 302.8 264.4 0.00 0.1507424 82.0
2021-09-20 16:35:00 92.7 12.4 33.5 92.7 92.7 6.5 12.2 7.5 277.1 267.2 0.00 0.1451894 82.1
2021-09-20 16:40:00 92.1 14.8 37.4 92.1 92.1 6.3 15.3 7.9 262.8 268.6 0.00 0.1395748 82.1
2021-09-20 16:45:00 91.4 14.2 36.0 91.4 91.4 7.8 12.8 9.4 256.7 273.3 0.00 0.1341085 82.2
2021-09-20 16:50:00 91.6 14.0 35.8 91.6 91.6 12.1 13.9 8.7 242.4 262.7 0.00 0.1292077 82.3
2021-09-20 16:55:00 91.9 14.0 35.9 91.9 91.9 8.3 12.6 8.9 248.5 257.7 0.00 0.1260128 82.3
2021-09-20 17:00:00 91.8 14.6 36.9 91.8 91.8 7.8 9.7 7.9 212.8 242.8 0.00 0.1208787 82.3
2021-09-20 17:05:00 91.6 14.3 36.2 91.6 91.6 7.1 8.7 6.3 290.9 256.8 0.00 0.1152497 82.4
2021-09-20 17:10:00 92.2 14.9 37.7 92.2 92.2 6.0 9.7 6.1 223.9 256.5 0.00 0.1098634 82.4
2021-09-20 17:15:00 91.7 14.6 36.8 91.7 91.7 9.9 10.8 7.3 229.4 248.8 0.00 0.1042552 82.4
2021-09-20 17:20:00 91.5 15.4 38.0 91.5 91.5 5.8 10.5 6.9 269.7 250.8 0.00 0.0989893 82.5
2021-09-20 17:25:00 91.6 15.3 37.9 91.6 91.6 9.7 11.3 6.8 272.9 246.5 0.00 0.0942670 82.5
2021-09-20 17:30:00 91.8 15.7 38.7 91.8 91.8 3.1 9.9 5.0 237.8 253.2 0.00 0.0891042 82.5
2021-09-20 17:35:00 91.9 15.5 38.4 91.9 91.9 7.6 14.2 6.2 239.3 249.1 0.00 0.0841669 82.5
2021-09-20 17:40:00 92.1 14.9 37.6 92.1 92.1 4.2 8.8 4.6 288.1 271.8 0.00 0.0790814 82.5
2021-09-20 17:45:00 91.2 15.1 37.2 91.2 91.2 9.9 11.3 8.1 243.0 255.5 0.00 0.0736982 82.5
2021-09-20 17:50:00 90.7 15.3 37.2 90.7 90.7 8.8 11.0 6.8 222.8 230.1 0.00 0.0833655 82.5
2021-09-20 17:55:00 90.7 16.1 38.6 90.7 90.7 8.5 10.8 7.4 244.2 248.5 0.00 0.0633016 82.5
2021-09-20 18:00:00 91.3 15.0 37.1 91.3 91.3 9.9 11.0 8.3 260.1 260.8 0.00 0.0580024 82.5
2021-09-20 18:05:00 90.8 15.6 37.7 90.8 90.8 5.6 12.4 8.4 245.8 259.3 0.00 0.0529585 82.5
2021-09-20 18:10:00 90.1 16.0 37.8 90.1 90.1 7.4 11.7 8.0 231.3 248.0 0.00 0.0481080 82.5
2021-09-20 18:15:00 89.7 15.9 37.4 89.7 89.7 7.8 13.5 9.6 235.6 256.5 0.00 0.0432117 82.4
2021-09-20 18:20:00 89.6 15.8 37.2 89.6 89.6 11.7 11.9 7.2 253.4 249.6 0.00 0.0386244 82.4
2021-09-20 18:25:00 89.0 16.9 38.4 89.0 89.0 4.6 14.0 8.7 250.1 243.6 0.00 0.0335969 82.4
2021-09-20 18:30:00 88.9 16.4 37.6 88.9 88.9 6.0 11.9 8.4 259.2 251.2 0.00 0.0277857 82.3
2021-09-20 18:35:00 88.8 16.0 36.8 88.8 88.8 8.0 12.1 7.9 213.6 241.9 0.00 0.0219188 82.3
2021-09-20 18:40:00 88.4 16.7 37.7 88.4 88.4 6.0 7.1 5.6 253.2 236.3 0.00 0.0165888 82.3
2021-09-20 18:45:00 87.9 16.8 37.3 87.9 87.9 9.7 10.8 6.8 260.9 234.7 0.00 0.0123202 82.2
2021-09-20 18:50:00 87.5 17.3 37.8 87.5 87.5 7.4 9.6 6.8 232.6 241.9 0.00 0.0085923 82.2
2021-09-20 18:55:00 87.5 17.4 37.9 87.5 87.5 4.2 11.7 7.4 258.1 237.6 0.00 0.0056537 82.1
2021-09-20 19:00:00 87.0 17.7 37.9 87.0 87.0 6.0 8.3 5.6 246.7 244.0 0.00 0.0030399 82.1
2021-09-20 19:05:00 86.6 18.1 38.2 86.6 86.6 5.3 7.4 5.0 218.2 232.0 0.00 0.0018228 82.0
2021-09-20 19:10:00 86.1 18.0 37.6 86.1 86.1 8.0 8.3 5.5 234.9 233.6 0.00 0.0011466 82.0
2021-09-20 19:15:00 85.7 18.6 38.1 85.7 85.7 4.2 7.8 5.3 231.9 238.9 0.00 0.0006601 81.9
2021-09-20 19:20:00 85.5 18.8 38.3 85.5 85.5 5.8 6.5 4.9 246.5 233.5 0.00 0.0003250 81.8
2021-09-20 19:25:00 85.0 19.1 38.3 85.0 85.0 5.8 6.0 4.8 221.1 232.8 0.00 0.0001453 81.8
2021-09-20 19:30:00 84.7 19.8 38.9 84.7 84.7 3.1 6.3 3.9 194.8 226.7 0.00 0.0000182 81.7
2021-09-20 19:35:00 84.3 20.2 39.1 84.3 84.3 3.3 6.5 4.2 237.8 232.2 0.00 0.0000000 81.6
2021-09-20 19:40:00 84.1 20.9 39.8 84.1 84.1 6.2 9.0 4.7 230.0 225.9 0.00 0.0000000 81.5
2021-09-20 19:45:00 84.0 21.0 39.9 84.0 84.0 5.8 7.2 4.8 212.5 228.3 0.00 0.0000000 81.5
2021-09-20 19:50:00 83.7 21.6 40.4 83.7 83.7 3.5 7.6 4.9 205.7 228.1 0.00 0.0000000 81.4
2021-09-20 19:55:00 83.6 21.7 40.4 83.6 83.6 6.2 7.2 5.1 236.4 231.1 0.00 0.0000000 81.3
2021-09-20 20:00:00 82.7 22.2 40.2 82.7 82.7 4.7 6.7 4.1 243.8 232.8 0.00 0.0000020 81.2
2021-09-20 20:05:00 82.8 22.7 40.8 82.8 82.8 3.5 6.5 4.6 229.6 234.7 0.00 0.0000000 81.2
2021-09-20 20:10:00 82.2 23.1 40.9 82.2 82.2 4.4 5.5 3.9 228.8 232.1 0.00 0.0000040 81.1
2021-09-20 20:15:00 81.8 23.4 40.9 81.8 81.8 3.8 5.8 3.9 240.7 233.1 0.00 0.0000222 81.0
2021-09-20 20:20:00 81.5 23.6 40.7 81.5 81.5 5.5 6.2 4.5 218.6 231.4 0.00 0.0000343 80.9
2021-09-20 20:25:00 81.7 23.4 40.7 81.7 81.7 4.9 7.6 5.1 245.4 237.4 0.00 0.0000343 80.8
2021-09-20 20:30:00 81.2 24.0 41.1 81.2 81.2 4.9 6.7 4.5 240.6 238.2 0.00 0.0000323 80.8
2021-09-20 20:35:00 81.5 23.6 40.8 81.5 81.5 6.7 8.3 5.1 223.0 233.4 0.00 0.0000242 80.7
2021-09-20 20:40:00 81.2 23.8 40.8 81.2 81.2 4.4 7.8 5.3 266.4 242.2 0.00 0.0000121 80.6
2021-09-20 20:45:00 81.2 23.5 40.4 81.2 81.2 5.5 9.0 4.9 207.2 239.6 0.00 0.0000101 80.5
2021-09-20 20:50:00 81.4 23.3 40.4 81.4 81.4 4.7 8.5 6.0 265.6 245.9 0.00 0.0000020 80.4
2021-09-20 20:55:00 81.5 23.5 40.7 81.5 81.5 4.9 8.3 5.2 238.5 245.3 0.00 0.0000020 80.4
2021-09-20 21:00:00 81.2 23.5 40.5 81.2 81.2 6.2 7.1 4.9 259.4 240.7 0.00 0.0000000 80.3
2021-09-20 21:05:00 80.9 24.1 40.8 80.9 80.9 4.0 7.6 4.6 251.6 233.3 0.00 0.0000000 80.2
2021-09-20 21:10:00 80.9 23.8 40.5 80.9 80.9 6.3 7.8 5.1 272.8 244.1 0.00 0.0000000 80.1
2021-09-20 21:15:00 80.7 24.2 40.8 80.7 80.7 4.4 8.0 5.4 267.2 248.8 0.00 0.0000000 80.1
2021-09-20 21:20:00 80.5 24.3 40.7 80.5 80.5 5.5 6.5 4.9 222.0 252.2 0.00 0.0000000 80.0
2021-09-20 21:25:00 80.5 24.3 40.7 80.5 80.5 4.4 8.0 4.8 266.1 252.3 0.00 0.0000000 79.9
2021-09-20 21:30:00 80.1 24.9 41.0 80.1 80.1 4.6 6.0 4.1 233.5 244.4 0.00 0.0000020 79.8
2021-09-20 21:35:00 80.1 25.2 41.3 80.1 80.1 3.5 7.2 4.6 241.3 248.6 0.00 0.0000000 79.8
2021-09-20 21:40:00 79.8 24.8 40.6 79.8 79.8 6.5 8.7 5.6 253.2 250.2 0.00 0.0000000 79.7
2021-09-20 21:45:00 80.0 24.8 40.9 80.0 80.0 6.2 8.7 6.1 264.8 249.9 0.00 0.0000000 79.6
2021-09-20 21:50:00 79.8 25.2 41.0 79.8 79.8 5.1 8.3 5.2 217.0 251.3 0.00 0.0000000 79.6
2021-09-20 21:55:00 79.4 25.6 41.2 79.4 79.4 5.1 6.7 4.5 224.5 247.6 0.00 0.0000000 79.5
2021-09-20 22:00:00 78.7 26.0 40.9 78.7 78.7 3.5 5.3 3.5 254.1 242.3 0.00 0.0000000 79.4
2021-09-20 22:05:00 78.7 26.3 41.3 78.7 78.7 2.4 5.8 3.8 244.3 238.7 0.00 0.0000000 79.4
2021-09-20 22:10:00 78.6 25.9 40.7 78.6 78.6 5.1 5.8 3.9 282.2 251.2 0.00 0.0000000 79.3
2021-09-20 22:15:00 78.4 26.1 40.7 78.4 78.4 3.5 5.6 3.6 205.1 250.9 0.00 0.0000000 79.2
2021-09-20 22:20:00 78.7 26.5 41.5 78.7 78.7 2.1 5.5 3.5 244.3 249.0 0.00 0.0000000 79.2
2021-09-20 22:25:00 78.7 26.3 41.3 78.7 78.7 3.3 7.1 3.5 286.2 251.6 0.00 0.0000000 79.1
2021-09-20 22:30:00 78.5 27.0 41.7 78.5 78.5 1.5 4.6 2.1 175.8 263.4 0.00 0.0000000 79.0
2021-09-20 22:35:00 78.3 26.9 41.5 78.3 78.3 2.1 3.1 2.0 143.7 248.4 0.00 0.0000000 78.9
2021-09-20 22:40:00 78.4 26.5 41.2 78.4 78.4 3.0 4.2 2.1 333.3 291.4 0.00 0.0000000 78.9
2021-09-20 22:45:00 78.5 26.7 41.5 78.5 78.5 0.8 3.5 1.9 3.7 254.4 0.00 0.0000000 78.9
2021-09-20 22:50:00 78.0 27.0 41.3 78.0 78.0 3.5 3.5 1.2 332.0 318.3 0.00 0.0000000 78.7
2021-09-20 22:55:00 78.7 26.4 41.3 78.7 78.7 3.1 3.1 2.2 57.8 32.0 0.00 0.0000000 78.7
2021-09-20 23:00:00 77.9 27.0 41.3 77.9 77.9 2.2 3.0 1.9 92.3 80.2 0.00 0.0000000 78.6
2021-09-20 23:05:00 77.1 28.0 41.5 77.1 77.1 1.7 2.4 1.6 83.2 161.3 0.00 0.0000000 78.5
2021-09-20 23:10:00 77.7 26.7 40.8 77.7 77.7 3.5 4.4 2.6 18.8 52.7 0.00 0.0000000 78.5
2021-09-20 23:15:00 78.2 26.4 40.8 78.2 78.2 2.1 4.6 2.7 277.0 332.5 0.00 0.0000000 78.4
2021-09-20 23:20:00 78.4 26.4 41.1 78.4 78.4 1.2 4.2 2.2 323.5 308.5 0.00 0.0000000 78.4
2021-09-20 23:25:00 78.4 26.7 41.4 78.4 78.4 2.2 2.8 1.6 1.1 336.5 0.00 0.0000000 78.3
2021-09-20 23:30:00 78.4 26.8 41.4 78.4 78.4 2.8 3.0 1.1 0.1 344.2 0.00 0.0000000 78.2
2021-09-20 23:35:00 77.8 26.9 41.1 77.8 77.8 2.4 3.5 2.4 68.7 39.0 0.00 0.0000000 78.2
2021-09-20 23:40:00 76.7 29.4 42.4 76.7 76.7 3.0 3.7 2.8 194.8 337.2 0.00 0.0000000 78.1
2021-09-20 23:45:00 76.1 29.3 41.8 76.1 76.1 1.0 3.0 1.1 249.2 195.8 0.00 0.0000000 78.1

Data is courtesy of the NM Climate Center. DO NOT USE IN LEGAL PROCEEDINGS.